Terminal Aerodrome Forecast
Issued by NWS Grand Forks, ND

Home | Current Version | Previous Version | Graphics & Text | Print | Product List | Glossary On
Versions: 1 2 3 4 5 6 7 8 9 10 11 12 13 14 15 16 17 18 19 20 21 22 23 24 25
887
FTUS43 KFGF 280439 AAD
TAFGFK
TAF AMD
KGFK 280439Z 2805/2824 36006KT 2SM BR BKN003
     FM280600 35008KT 4SM BR SCT003 BKN070
     FM281400 03005KT P6SM BKN070
     FM281600 04005KT P6SM BKN080
     FM281900 06005KT P6SM SCT110=

USA.gov is the U.S. government's official web portal to all federal, state and local government web resources and services.